sensor_id;sensor_type;location;lat;lon;timestamp;temperature;humidity
43047;DHT22;28672;49.358;8.780;2022-09-28T00:01:50;9.50;99.90
43047;DHT22;28672;49.358;8.780;2022-09-28T00:04:16;9.50;99.90
43047;DHT22;28672;49.358;8.780;2022-09-28T00:06:41;9.50;99.90
43047;DHT22;28672;49.358;8.780;2022-09-28T00:09:07;9.40;99.90
43047;DHT22;28672;49.358;8.780;2022-09-28T00:11:32;9.40;99.90
43047;DHT22;28672;49.358;8.780;2022-09-28T00:14:00;9.40;99.90
43047;DHT22;28672;49.358;8.780;2022-09-28T00:16:30;9.50;99.90
43047;DHT22;28672;49.358;8.780;2022-09-28T00:18:57;9.50;99.90
43047;DHT22;28672;49.358;8.780;2022-09-28T00:21:34;9.50;99.90
43047;DHT22;28672;49.358;8.780;2022-09-28T00:24:01;9.50;99.90
43047;DHT22;28672;49.358;8.780;2022-09-28T00:26:47;9.50;99.90
43047;DHT22;28672;49.358;8.780;2022-09-28T00:29:22;9.50;99.90
43047;DHT22;28672;49.358;8.780;2022-09-28T00:31:51;9.40;99.90
43047;DHT22;28672;49.358;8.780;2022-09-28T00:34:17;9.40;99.90
43047;DHT22;28672;49.358;8.780;2022-09-28T00:36:44;9.40;99.90
43047;DHT22;28672;49.358;8.780;2022-09-28T00:39:11;9.40;99.90
43047;DHT22;28672;49.358;8.780;2022-09-28T00:41:37;9.50;99.90
43047;DHT22;28672;49.358;8.780;2022-09-28T00:49:38;9.50;99.90
43047;DHT22;28672;49.358;8.780;2022-09-28T00:52:06;9.50;99.90
43047;DHT22;28672;49.358;8.780;2022-09-28T00:54:33;9.60;99.90
43047;DHT22;28672;49.358;8.780;2022-09-28T00:57:00;9.60;99.90
43047;DHT22;28672;49.358;8.780;2022-09-28T00:59:27;9.60;99.90
43047;DHT22;28672;49.358;8.780;2022-09-28T01:01:53;9.60;99.90
43047;DHT22;28672;49.358;8.780;2022-09-28T01:04:19;9.60;99.90
43047;DHT22;28672;49.358;8.780;2022-09-28T01:06:46;9.60;99.90
43047;DHT22;28672;49.358;8.780;2022-09-28T01:09:12;9.60;99.90
43047;DHT22;28672;49.358;8.780;2022-09-28T01:11:39;9.60;99.90
43047;DHT22;28672;49.358;8.780;2022-09-28T01:14:08;9.60;99.90
43047;DHT22;28672;49.358;8.780;2022-09-28T01:16:40;9.70;99.90
43047;DHT22;28672;49.358;8.780;2022-09-28T01:28:10;9.70;99.90
43047;DHT22;28672;49.358;8.780;2022-09-28T01:31:01;9.80;99.90
43047;DHT22;28672;49.358;8.780;2022-09-28T01:33:34;9.70;99.90
43047;DHT22;28672;49.358;8.780;2022-09-28T01:36:08;9.80;99.90
43047;DHT22;28672;49.358;8.780;2022-09-28T01:38:43;9.70;99.90
43047;DHT22;28672;49.358;8.780;2022-09-28T01:41:11;9.70;99.90
43047;DHT22;28672;49.358;8.780;2022-09-28T01:43:40;9.80;99.90
43047;DHT22;28672;49.358;8.780;2022-09-28T01:46:30;9.80;99.90
43047;DHT22;28672;49.358;8.780;2022-09-28T01:49:01;9.80;99.90
43047;DHT22;28672;49.358;8.780;2022-09-28T01:51:41;9.80;99.90
43047;DHT22;28672;49.358;8.780;2022-09-28T01:57:12;9.80;99.90
43047;DHT22;28672;49.358;8.780;2022-09-28T01:59:43;9.80;99.90
43047;DHT22;28672;49.358;8.780;2022-09-28T02:02:17;9.80;99.90
43047;DHT22;28672;49.358;8.780;2022-09-28T02:04:52;9.80;99.90
43047;DHT22;28672;49.358;8.780;2022-09-28T02:07:27;9.80;99.90
43047;DHT22;28672;49.358;8.780;2022-09-28T02:10:02;9.90;99.90
43047;DHT22;28672;49.358;8.780;2022-09-28T02:12:34;9.90;99.90
43047;DHT22;28672;49.358;8.780;2022-09-28T02:15:25;9.90;99.90
43047;DHT22;28672;49.358;8.780;2022-09-28T02:17:52;9.90;99.90
43047;DHT22;28672;49.358;8.780;2022-09-28T02:20:20;9.90;99.90
43047;DHT22;28672;49.358;8.780;2022-09-28T02:22:49;9.90;99.90
43047;DHT22;28672;49.358;8.780;2022-09-28T02:28:05;9.90;99.90
43047;DHT22;28672;49.358;8.780;2022-09-28T02:30:35;9.90;99.90
43047;DHT22;28672;49.358;8.780;2022-09-28T02:33:39;10.00;99.90
43047;DHT22;28672;49.358;8.780;2022-09-28T02:36:06;10.00;99.90
43047;DHT22;28672;49.358;8.780;2022-09-28T02:38:32;10.00;99.90
43047;DHT22;28672;49.358;8.780;2022-09-28T02:41:15;10.00;99.90
43047;DHT22;28672;49.358;8.780;2022-09-28T02:46:24;10.10;99.90
43047;DHT22;28672;49.358;8.780;2022-09-28T02:49:12;10.20;99.90
43047;DHT22;28672;49.358;8.780;2022-09-28T02:55:04;10.20;99.90
43047;DHT22;28672;49.358;8.780;2022-09-28T03:00:22;10.20;99.90
43047;DHT22;28672;49.358;8.780;2022-09-28T03:03:02;10.20;99.90
43047;DHT22;28672;49.358;8.780;2022-09-28T03:05:31;10.20;99.90
43047;DHT22;28672;49.358;8.780;2022-09-28T03:08:09;10.20;99.90
43047;DHT22;28672;49.358;8.780;2022-09-28T03:10:50;10.20;99.90
43047;DHT22;28672;49.358;8.780;2022-09-28T03:13:18;10.20;99.90
43047;DHT22;28672;49.358;8.780;2022-09-28T03:15:43;10.20;99.90
43047;DHT22;28672;49.358;8.780;2022-09-28T03:18:09;10.20;99.90
43047;DHT22;28672;49.358;8.780;2022-09-28T03:20:35;10.30;99.90
43047;DHT22;28672;49.358;8.780;2022-09-28T03:23:01;10.20;99.90
43047;DHT22;28672;49.358;8.780;2022-09-28T03:25:27;10.20;99.90
43047;DHT22;28672;49.358;8.780;2022-09-28T03:27:52;10.20;99.90
43047;DHT22;28672;49.358;8.780;2022-09-28T03:30:18;10.20;99.90
43047;DHT22;28672;49.358;8.780;2022-09-28T03:32:44;10.20;99.90
43047;DHT22;28672;49.358;8.780;2022-09-28T03:35:09;10.20;99.90
43047;DHT22;28672;49.358;8.780;2022-09-28T03:37:35;10.20;99.90
43047;DHT22;28672;49.358;8.780;2022-09-28T03:40:02;10.20;99.90
43047;DHT22;28672;49.358;8.780;2022-09-28T03:42:28;10.20;99.90
43047;DHT22;28672;49.358;8.780;2022-09-28T03:44:53;10.20;99.90
43047;DHT22;28672;49.358;8.780;2022-09-28T03:47:19;10.20;99.90
43047;DHT22;28672;49.358;8.780;2022-09-28T03:49:45;10.30;99.90
43047;DHT22;28672;49.358;8.780;2022-09-28T03:52:12;10.20;99.90
43047;DHT22;28672;49.358;8.780;2022-09-28T03:54:38;10.20;99.90
43047;DHT22;28672;49.358;8.780;2022-09-28T03:57:03;10.30;99.90
43047;DHT22;28672;49.358;8.780;2022-09-28T03:59:29;10.20;99.90
43047;DHT22;28672;49.358;8.780;2022-09-28T04:01:55;10.30;99.90
43047;DHT22;28672;49.358;8.780;2022-09-28T04:04:21;10.30;99.90
43047;DHT22;28672;49.358;8.780;2022-09-28T04:06:46;10.20;99.90
43047;DHT22;28672;49.358;8.780;2022-09-28T04:09:12;10.20;99.90
43047;DHT22;28672;49.358;8.780;2022-09-28T04:11:37;10.30;99.90
43047;DHT22;28672;49.358;8.780;2022-09-28T04:14:03;10.30;99.90
43047;DHT22;28672;49.358;8.780;2022-09-28T04:16:28;10.20;99.90
43047;DHT22;28672;49.358;8.780;2022-09-28T04:18:54;10.20;99.90
43047;DHT22;28672;49.358;8.780;2022-09-28T04:21:21;10.20;99.90
43047;DHT22;28672;49.358;8.780;2022-09-28T04:23:47;10.20;99.90
43047;DHT22;28672;49.358;8.780;2022-09-28T04:26:21;10.20;99.90
43047;DHT22;28672;49.358;8.780;2022-09-28T04:28:47;10.20;99.90
43047;DHT22;28672;49.358;8.780;2022-09-28T04:31:45;10.20;99.90
43047;DHT22;28672;49.358;8.780;2022-09-28T04:34:11;10.20;99.90
43047;DHT22;28672;49.358;8.780;2022-09-28T04:36:37;10.10;99.90
43047;DHT22;28672;49.358;8.780;2022-09-28T04:39:03;10.10;99.90
43047;DHT22;28672;49.358;8.780;2022-09-28T04:41:29;10.10;99.90
43047;DHT22;28672;49.358;8.780;2022-09-28T04:43:55;10.10;99.90
43047;DHT22;28672;49.358;8.780;2022-09-28T04:46:20;10.00;99.90
43047;DHT22;28672;49.358;8.780;2022-09-28T04:48:46;10.00;99.90
43047;DHT22;28672;49.358;8.780;2022-09-28T04:51:11;10.00;99.90
43047;DHT22;28672;49.358;8.780;2022-09-28T04:53:37;10.00;99.90
43047;DHT22;28672;49.358;8.780;2022-09-28T04:56:08;10.00;99.90
43047;DHT22;28672;49.358;8.780;2022-09-28T04:58:35;10.00;99.90
43047;DHT22;28672;49.358;8.780;2022-09-28T05:01:02;10.00;99.90
43047;DHT22;28672;49.358;8.780;2022-09-28T05:03:28;9.90;99.90
43047;DHT22;28672;49.358;8.780;2022-09-28T05:05:54;9.90;99.90
43047;DHT22;28672;49.358;8.780;2022-09-28T05:08:19;9.90;99.90
43047;DHT22;28672;49.358;8.780;2022-09-28T05:10:45;9.90;99.90
43047;DHT22;28672;49.358;8.780;2022-09-28T05:13:12;9.90;99.90
43047;DHT22;28672;49.358;8.780;2022-09-28T05:15:39;9.90;99.90
43047;DHT22;28672;49.358;8.780;2022-09-28T05:18:05;9.80;99.90
43047;DHT22;28672;49.358;8.780;2022-09-28T05:20:31;9.80;99.90
43047;DHT22;28672;49.358;8.780;2022-09-28T05:22:57;9.80;99.90
43047;DHT22;28672;49.358;8.780;2022-09-28T05:25:23;9.80;99.90
43047;DHT22;28672;49.358;8.780;2022-09-28T05:27:56;9.80;99.90
43047;DHT22;28672;49.358;8.780;2022-09-28T05:30:25;9.80;99.90
43047;DHT22;28672;49.358;8.780;2022-09-28T05:32:50;9.80;99.90
43047;DHT22;28672;49.358;8.780;2022-09-28T05:35:16;9.80;99.90
43047;DHT22;28672;49.358;8.780;2022-09-28T05:37:42;9.80;99.90
43047;DHT22;28672;49.358;8.780;2022-09-28T05:40:08;9.90;99.90
43047;DHT22;28672;49.358;8.780;2022-09-28T05:42:34;9.90;99.90
43047;DHT22;28672;49.358;8.780;2022-09-28T05:44:59;9.90;99.90
43047;DHT22;28672;49.358;8.780;2022-09-28T05:47:26;10.00;99.90
43047;DHT22;28672;49.358;8.780;2022-09-28T05:49:52;10.10;99.90
43047;DHT22;28672;49.358;8.780;2022-09-28T05:52:18;10.10;99.90
43047;DHT22;28672;49.358;8.780;2022-09-28T05:54:44;10.10;99.90
43047;DHT22;28672;49.358;8.780;2022-09-28T05:57:09;10.10;99.90
43047;DHT22;28672;49.358;8.780;2022-09-28T05:59:35;10.20;99.90
43047;DHT22;28672;49.358;8.780;2022-09-28T06:02:01;10.20;99.90
43047;DHT22;28672;49.358;8.780;2022-09-28T06:04:27;10.30;99.90
43047;DHT22;28672;49.358;8.780;2022-09-28T06:06:53;10.30;99.90
43047;DHT22;28672;49.358;8.780;2022-09-28T06:09:19;10.30;99.90
43047;DHT22;28672;49.358;8.780;2022-09-28T06:11:44;10.30;99.90
43047;DHT22;28672;49.358;8.780;2022-09-28T06:14:10;10.40;99.90
43047;DHT22;28672;49.358;8.780;2022-09-28T06:16:38;10.40;99.90
43047;DHT22;28672;49.358;8.780;2022-09-28T06:19:03;10.50;99.90
43047;DHT22;28672;49.358;8.780;2022-09-28T06:21:29;10.50;99.90
43047;DHT22;28672;49.358;8.780;2022-09-28T06:23:54;10.50;99.90
43047;DHT22;28672;49.358;8.780;2022-09-28T06:26:20;10.50;99.90
43047;DHT22;28672;49.358;8.780;2022-09-28T06:28:45;10.60;99.90
43047;DHT22;28672;49.358;8.780;2022-09-28T06:31:11;10.60;99.90
43047;DHT22;28672;49.358;8.780;2022-09-28T06:33:37;10.60;99.90
43047;DHT22;28672;49.358;8.780;2022-09-28T06:36:03;10.60;99.90
43047;DHT22;28672;49.358;8.780;2022-09-28T06:38:29;10.60;99.90
43047;DHT22;28672;49.358;8.780;2022-09-28T06:40:57;10.60;99.90
43047;DHT22;28672;49.358;8.780;2022-09-28T06:43:23;10.60;99.90
43047;DHT22;28672;49.358;8.780;2022-09-28T06:45:52;10.60;99.90
43047;DHT22;28672;49.358;8.780;2022-09-28T06:48:18;10.60;99.90
43047;DHT22;28672;49.358;8.780;2022-09-28T06:50:44;10.60;99.90
43047;DHT22;28672;49.358;8.780;2022-09-28T06:53:12;10.70;99.90
43047;DHT22;28672;49.358;8.780;2022-09-28T06:55:39;10.70;99.90
43047;DHT22;28672;49.358;8.780;2022-09-28T06:58:08;10.80;99.90
43047;DHT22;28672;49.358;8.780;2022-09-28T07:00:35;10.70;99.90
43047;DHT22;28672;49.358;8.780;2022-09-28T07:03:03;10.70;99.90
43047;DHT22;28672;49.358;8.780;2022-09-28T07:05:29;10.70;99.90
43047;DHT22;28672;49.358;8.780;2022-09-28T07:07:56;10.70;99.90
43047;DHT22;28672;49.358;8.780;2022-09-28T07:10:27;10.80;99.90
43047;DHT22;28672;49.358;8.780;2022-09-28T07:12:53;10.80;99.90
43047;DHT22;28672;49.358;8.780;2022-09-28T07:15:20;10.80;99.90
43047;DHT22;28672;49.358;8.780;2022-09-28T07:17:46;10.80;99.90
43047;DHT22;28672;49.358;8.780;2022-09-28T07:20:12;10.90;99.90
43047;DHT22;28672;49.358;8.780;2022-09-28T07:22:38;10.90;99.90
43047;DHT22;28672;49.358;8.780;2022-09-28T07:25:04;10.80;99.90
43047;DHT22;28672;49.358;8.780;2022-09-28T07:27:30;10.90;99.90
43047;DHT22;28672;49.358;8.780;2022-09-28T07:29:56;10.90;99.90
43047;DHT22;28672;49.358;8.780;2022-09-28T07:32:23;11.00;99.90
43047;DHT22;28672;49.358;8.780;2022-09-28T07:34:49;11.10;99.90
43047;DHT22;28672;49.358;8.780;2022-09-28T07:37:15;11.10;99.90
43047;DHT22;28672;49.358;8.780;2022-09-28T07:39:43;11.10;99.90
43047;DHT22;28672;49.358;8.780;2022-09-28T07:42:27;11.20;99.90
43047;DHT22;28672;49.358;8.780;2022-09-28T07:44:54;11.20;99.90
43047;DHT22;28672;49.358;8.780;2022-09-28T07:47:21;11.20;99.90
43047;DHT22;28672;49.358;8.780;2022-09-28T07:49:52;11.20;99.90
43047;DHT22;28672;49.358;8.780;2022-09-28T07:52:19;11.20;99.90
43047;DHT22;28672;49.358;8.780;2022-09-28T07:54:47;11.20;99.90
43047;DHT22;28672;49.358;8.780;2022-09-28T07:57:16;11.20;99.90
43047;DHT22;28672;49.358;8.780;2022-09-28T07:59:42;11.20;99.90
43047;DHT22;28672;49.358;8.780;2022-09-28T08:02:09;11.20;99.90
43047;DHT22;28672;49.358;8.780;2022-09-28T08:04:35;11.30;99.90
43047;DHT22;28672;49.358;8.780;2022-09-28T08:07:00;11.40;99.90
43047;DHT22;28672;49.358;8.780;2022-09-28T08:09:28;11.60;99.90
43047;DHT22;28672;49.358;8.780;2022-09-28T08:11:53;11.80;99.90
43047;DHT22;28672;49.358;8.780;2022-09-28T08:14:19;12.00;99.90
43047;DHT22;28672;49.358;8.780;2022-09-28T08:16:45;12.20;99.90
43047;DHT22;28672;49.358;8.780;2022-09-28T08:19:11;12.40;99.90
43047;DHT22;28672;49.358;8.780;2022-09-28T08:21:36;12.60;99.90
43047;DHT22;28672;49.358;8.780;2022-09-28T08:24:15;12.50;99.90
43047;DHT22;28672;49.358;8.780;2022-09-28T08:26:41;12.70;99.90
43047;DHT22;28672;49.358;8.780;2022-09-28T08:29:07;13.00;99.90
43047;DHT22;28672;49.358;8.780;2022-09-28T08:31:33;13.40;99.90
43047;DHT22;28672;49.358;8.780;2022-09-28T08:33:59;13.50;99.90
43047;DHT22;28672;49.358;8.780;2022-09-28T08:36:24;13.60;99.90
43047;DHT22;28672;49.358;8.780;2022-09-28T08:38:50;13.50;99.90
43047;DHT22;28672;49.358;8.780;2022-09-28T08:41:43;13.20;99.90
43047;DHT22;28672;49.358;8.780;2022-09-28T08:44:11;13.30;99.90
43047;DHT22;28672;49.358;8.780;2022-09-28T08:46:42;13.50;99.90
43047;DHT22;28672;49.358;8.780;2022-09-28T08:49:22;13.80;99.90
43047;DHT22;28672;49.358;8.780;2022-09-28T08:52:04;13.90;99.90
43047;DHT22;28672;49.358;8.780;2022-09-28T08:54:50;14.00;99.90
43047;DHT22;28672;49.358;8.780;2022-09-28T08:57:32;14.40;99.90
43047;DHT22;28672;49.358;8.780;2022-09-28T09:00:03;14.20;99.90
43047;DHT22;28672;49.358;8.780;2022-09-28T09:02:39;14.40;99.90
43047;DHT22;28672;49.358;8.780;2022-09-28T09:05:10;14.30;99.90
43047;DHT22;28672;49.358;8.780;2022-09-28T09:08:00;14.70;99.90
43047;DHT22;28672;49.358;8.780;2022-09-28T09:14:15;14.70;99.90
43047;DHT22;28672;49.358;8.780;2022-09-28T09:18:56;14.30;99.90
43047;DHT22;28672;49.358;8.780;2022-09-28T09:21:40;14.00;99.90
43047;DHT22;28672;49.358;8.780;2022-09-28T09:24:26;13.90;99.90
43047;DHT22;28672;49.358;8.780;2022-09-28T09:27:05;14.30;99.90
43047;DHT22;28672;49.358;8.780;2022-09-28T09:32:29;14.60;99.90
43047;DHT22;28672;49.358;8.780;2022-09-28T09:38:03;15.10;99.90
43047;DHT22;28672;49.358;8.780;2022-09-28T09:43:39;15.20;99.90
43047;DHT22;28672;49.358;8.780;2022-09-28T09:48:59;14.60;99.90
43047;DHT22;28672;49.358;8.780;2022-09-28T09:54:32;14.30;99.90
43047;DHT22;28672;49.358;8.780;2022-09-28T09:57:22;14.00;99.90
43047;DHT22;28672;49.358;8.780;2022-09-28T09:59:50;13.80;99.90
43047;DHT22;28672;49.358;8.780;2022-09-28T10:02:27;13.80;99.90
43047;DHT22;28672;49.358;8.780;2022-09-28T10:04:58;13.70;99.90
43047;DHT22;28672;49.358;8.780;2022-09-28T10:07:40;13.90;99.90
43047;DHT22;28672;49.358;8.780;2022-09-28T10:10:22;14.20;99.90
43047;DHT22;28672;49.358;8.780;2022-09-28T10:12:50;14.50;99.90
43047;DHT22;28672;49.358;8.780;2022-09-28T10:15:23;14.50;99.90
43047;DHT22;28672;49.358;8.780;2022-09-28T10:17:50;14.30;99.90
43047;DHT22;28672;49.358;8.780;2022-09-28T10:20:16;14.20;99.90
43047;DHT22;28672;49.358;8.780;2022-09-28T10:22:43;14.10;99.90
43047;DHT22;28672;49.358;8.780;2022-09-28T10:25:09;14.00;99.90
43047;DHT22;28672;49.358;8.780;2022-09-28T10:27:40;14.00;99.90
43047;DHT22;28672;49.358;8.780;2022-09-28T10:30:12;14.10;99.90
43047;DHT22;28672;49.358;8.780;2022-09-28T10:32:46;14.00;99.90
43047;DHT22;28672;49.358;8.780;2022-09-28T10:35:28;14.00;99.90
43047;DHT22;28672;49.358;8.780;2022-09-28T10:38:06;13.90;99.90
43047;DHT22;28672;49.358;8.780;2022-09-28T10:40:44;13.80;99.90
43047;DHT22;28672;49.358;8.780;2022-09-28T10:43:23;13.70;99.90
43047;DHT22;28672;49.358;8.780;2022-09-28T10:46:11;13.70;99.90
43047;DHT22;28672;49.358;8.780;2022-09-28T10:49:16;13.70;99.90
43047;DHT22;28672;49.358;8.780;2022-09-28T10:51:53;14.20;99.90
43047;DHT22;28672;49.358;8.780;2022-09-28T10:54:29;14.30;99.90
43047;DHT22;28672;49.358;8.780;2022-09-28T10:56:56;14.30;99.90
43047;DHT22;28672;49.358;8.780;2022-09-28T11:02:00;14.40;99.90
43047;DHT22;28672;49.358;8.780;2022-09-28T11:04:28;14.50;99.90
43047;DHT22;28672;49.358;8.780;2022-09-28T11:06:56;14.60;99.90
43047;DHT22;28672;49.358;8.780;2022-09-28T11:09:28;14.90;99.90
43047;DHT22;28672;49.358;8.780;2022-09-28T11:11:54;15.00;99.90
43047;DHT22;28672;49.358;8.780;2022-09-28T11:14:33;15.00;99.90
43047;DHT22;28672;49.358;8.780;2022-09-28T11:17:26;15.10;99.90
43047;DHT22;28672;49.358;8.780;2022-09-28T11:19:57;15.20;99.90
43047;DHT22;28672;49.358;8.780;2022-09-28T11:22:24;15.50;99.90
43047;DHT22;28672;49.358;8.780;2022-09-28T11:24:51;15.40;99.90
43047;DHT22;28672;49.358;8.780;2022-09-28T11:27:24;15.40;99.90
43047;DHT22;28672;49.358;8.780;2022-09-28T11:29:58;15.40;99.90
43047;DHT22;28672;49.358;8.780;2022-09-28T11:32:30;15.20;99.90
43047;DHT22;28672;49.358;8.780;2022-09-28T11:35:03;14.80;99.90
43047;DHT22;28672;49.358;8.780;2022-09-28T11:40:25;14.70;99.90
43047;DHT22;28672;49.358;8.780;2022-09-28T11:43:01;14.70;99.90
43047;DHT22;28672;49.358;8.780;2022-09-28T11:45:41;15.00;99.90
43047;DHT22;28672;49.358;8.780;2022-09-28T11:48:14;15.30;99.90
43047;DHT22;28672;49.358;8.780;2022-09-28T11:50:45;15.60;99.90
43047;DHT22;28672;49.358;8.780;2022-09-28T11:53:19;15.80;99.90
43047;DHT22;28672;49.358;8.780;2022-09-28T11:56:14;16.00;99.90
43047;DHT22;28672;49.358;8.780;2022-09-28T11:58:50;16.00;99.90
43047;DHT22;28672;49.358;8.780;2022-09-28T12:01:39;16.20;99.90
43047;DHT22;28672;49.358;8.780;2022-09-28T12:15:20;16.40;99.90
43047;DHT22;28672;49.358;8.780;2022-09-28T12:17:54;16.40;99.90
43047;DHT22;28672;49.358;8.780;2022-09-28T12:20:38;16.60;99.90
43047;DHT22;28672;49.358;8.780;2022-09-28T12:23:19;17.00;99.90
43047;DHT22;28672;49.358;8.780;2022-09-28T12:25:54;17.10;99.90
43047;DHT22;28672;49.358;8.780;2022-09-28T12:28:49;17.20;99.90
43047;DHT22;28672;49.358;8.780;2022-09-28T12:31:29;17.10;99.90
43047;DHT22;28672;49.358;8.780;2022-09-28T12:34:00;17.20;99.90
43047;DHT22;28672;49.358;8.780;2022-09-28T12:36:33;16.90;99.90
43047;DHT22;28672;49.358;8.780;2022-09-28T12:39:40;16.70;99.90
43047;DHT22;28672;49.358;8.780;2022-09-28T12:45:08;16.70;99.90
43047;DHT22;28672;49.358;8.780;2022-09-28T12:56:02;17.10;99.90
43047;DHT22;28672;49.358;8.780;2022-09-28T12:58:50;17.00;99.90
43047;DHT22;28672;49.358;8.780;2022-09-28T13:01:43;17.40;99.90
43047;DHT22;28672;49.358;8.780;2022-09-28T13:09:59;16.90;99.90
43047;DHT22;28672;49.358;8.780;2022-09-28T13:18:24;16.30;99.90
43047;DHT22;28672;49.358;8.780;2022-09-28T13:21:15;16.00;99.90
43047;DHT22;28672;49.358;8.780;2022-09-28T13:23:44;15.70;99.90
43047;DHT22;28672;49.358;8.780;2022-09-28T13:28:44;15.70;99.90
43047;DHT22;28672;49.358;8.780;2022-09-28T13:31:11;15.60;99.90
43047;DHT22;28672;49.358;8.780;2022-09-28T13:33:43;15.80;99.90
43047;DHT22;28672;49.358;8.780;2022-09-28T13:38:51;15.50;99.90
43047;DHT22;28672;49.358;8.780;2022-09-28T13:41:22;15.70;99.90
43047;DHT22;28672;49.358;8.780;2022-09-28T13:58:42;15.50;99.90
43047;DHT22;28672;49.358;8.780;2022-09-28T14:01:31;15.50;99.90
43047;DHT22;28672;49.358;8.780;2022-09-28T14:04:19;15.30;99.90
43047;DHT22;28672;49.358;8.780;2022-09-28T14:07:08;15.20;99.90
43047;DHT22;28672;49.358;8.780;2022-09-28T14:09:44;15.20;99.90
43047;DHT22;28672;49.358;8.780;2022-09-28T14:12:29;15.20;99.90
43047;DHT22;28672;49.358;8.780;2022-09-28T14:14:55;15.20;99.90
43047;DHT22;28672;49.358;8.780;2022-09-28T14:25:27;15.40;99.90
43047;DHT22;28672;49.358;8.780;2022-09-28T14:30:52;15.40;99.90
43047;DHT22;28672;49.358;8.780;2022-09-28T14:35:52;15.40;99.90
43047;DHT22;28672;49.358;8.780;2022-09-28T14:38:24;15.30;99.90
43047;DHT22;28672;49.358;8.780;2022-09-28T14:41:35;15.10;99.90
43047;DHT22;28672;49.358;8.780;2022-09-28T14:44:12;15.10;99.90
43047;DHT22;28672;49.358;8.780;2022-09-28T14:46:40;15.00;99.90
43047;DHT22;28672;49.358;8.780;2022-09-28T14:54:26;15.00;99.90
43047;DHT22;28672;49.358;8.780;2022-09-28T14:59:23;15.10;99.90
43047;DHT22;28672;49.358;8.780;2022-09-28T15:05:37;15.10;99.90
43047;DHT22;28672;49.358;8.780;2022-09-28T15:08:06;15.00;99.90
43047;DHT22;28672;49.358;8.780;2022-09-28T15:10:34;14.90;99.90
43047;DHT22;28672;49.358;8.780;2022-09-28T15:13:15;14.90;99.90
43047;DHT22;28672;49.358;8.780;2022-09-28T15:15:46;14.90;99.90
43047;DHT22;28672;49.358;8.780;2022-09-28T15:20:47;15.00;99.90
43047;DHT22;28672;49.358;8.780;2022-09-28T15:25:53;14.90;99.90
43047;DHT22;28672;49.358;8.780;2022-09-28T15:28:21;14.90;99.90
43047;DHT22;28672;49.358;8.780;2022-09-28T15:30:47;14.80;99.90
43047;DHT22;28672;49.358;8.780;2022-09-28T15:33:33;14.80;99.90
43047;DHT22;28672;49.358;8.780;2022-09-28T15:36:24;14.80;99.90
43047;DHT22;28672;49.358;8.780;2022-09-28T15:41:37;14.70;99.90
43047;DHT22;28672;49.358;8.780;2022-09-28T15:46:46;14.50;99.90
43047;DHT22;28672;49.358;8.780;2022-09-28T15:49:39;14.40;99.90
43047;DHT22;28672;49.358;8.780;2022-09-28T15:52:19;14.30;99.90
43047;DHT22;28672;49.358;8.780;2022-09-28T15:54:46;14.10;99.90
43047;DHT22;28672;49.358;8.780;2022-09-28T15:57:29;14.00;99.90
43047;DHT22;28672;49.358;8.780;2022-09-28T15:59:57;13.80;99.90
43047;DHT22;28672;49.358;8.780;2022-09-28T16:02:24;13.60;99.90
43047;DHT22;28672;49.358;8.780;2022-09-28T16:04:55;13.50;99.90
43047;DHT22;28672;49.358;8.780;2022-09-28T16:07:33;13.40;99.90
43047;DHT22;28672;49.358;8.780;2022-09-28T16:12:43;13.40;99.90
43047;DHT22;28672;49.358;8.780;2022-09-28T16:15:34;13.40;99.90
43047;DHT22;28672;49.358;8.780;2022-09-28T16:18:05;13.30;99.90
43047;DHT22;28672;49.358;8.780;2022-09-28T16:20:42;13.10;99.90
43047;DHT22;28672;49.358;8.780;2022-09-28T16:25:48;12.80;99.90
43047;DHT22;28672;49.358;8.780;2022-09-28T16:31:30;12.50;99.90
43047;DHT22;28672;49.358;8.780;2022-09-28T16:34:07;12.40;99.90
43047;DHT22;28672;49.358;8.780;2022-09-28T16:36:41;12.30;99.90
43047;DHT22;28672;49.358;8.780;2022-09-28T16:39:08;12.10;99.90
43047;DHT22;28672;49.358;8.780;2022-09-28T16:41:36;12.00;99.90
43047;DHT22;28672;49.358;8.780;2022-09-28T16:44:04;11.90;99.90
43047;DHT22;28672;49.358;8.780;2022-09-28T16:46:36;11.80;99.90
43047;DHT22;28672;49.358;8.780;2022-09-28T16:49:05;11.70;99.90
43047;DHT22;28672;49.358;8.780;2022-09-28T16:51:31;11.60;99.90
43047;DHT22;28672;49.358;8.780;2022-09-28T16:54:18;11.50;99.90
43047;DHT22;28672;49.358;8.780;2022-09-28T16:57:04;11.50;99.90
43047;DHT22;28672;49.358;8.780;2022-09-28T16:59:30;11.50;99.90
43047;DHT22;28672;49.358;8.780;2022-09-28T17:01:56;11.40;99.90
43047;DHT22;28672;49.358;8.780;2022-09-28T17:04:23;11.40;99.90
43047;DHT22;28672;49.358;8.780;2022-09-28T17:06:50;11.40;99.90
43047;DHT22;28672;49.358;8.780;2022-09-28T17:09:18;11.20;99.90
43047;DHT22;28672;49.358;8.780;2022-09-28T17:11:43;11.10;99.90
43047;DHT22;28672;49.358;8.780;2022-09-28T17:14:09;11.10;99.90
43047;DHT22;28672;49.358;8.780;2022-09-28T17:16:34;11.10;99.90
43047;DHT22;28672;49.358;8.780;2022-09-28T17:19:00;11.00;99.90
43047;DHT22;28672;49.358;8.780;2022-09-28T17:21:26;11.00;99.90
43047;DHT22;28672;49.358;8.780;2022-09-28T17:23:52;10.90;99.90
43047;DHT22;28672;49.358;8.780;2022-09-28T17:26:28;10.80;99.90
43047;DHT22;28672;49.358;8.780;2022-09-28T17:28:59;10.80;99.90
43047;DHT22;28672;49.358;8.780;2022-09-28T17:31:26;10.70;99.90
43047;DHT22;28672;49.358;8.780;2022-09-28T17:33:52;10.70;99.90
43047;DHT22;28672;49.358;8.780;2022-09-28T17:36:19;10.70;99.90
43047;DHT22;28672;49.358;8.780;2022-09-28T17:38:46;10.70;99.90
43047;DHT22;28672;49.358;8.780;2022-09-28T17:41:17;10.70;99.90
43047;DHT22;28672;49.358;8.780;2022-09-28T17:43:43;10.70;99.90
43047;DHT22;28672;49.358;8.780;2022-09-28T17:46:27;10.60;99.90
43047;DHT22;28672;49.358;8.780;2022-09-28T17:48:54;10.50;99.90
43047;DHT22;28672;49.358;8.780;2022-09-28T17:51:20;10.40;99.90
43047;DHT22;28672;49.358;8.780;2022-09-28T17:53:46;10.40;99.90
43047;DHT22;28672;49.358;8.780;2022-09-28T17:56:12;10.20;99.90
43047;DHT22;28672;49.358;8.780;2022-09-28T17:58:38;10.20;99.90
43047;DHT22;28672;49.358;8.780;2022-09-28T18:01:03;10.20;99.90
43047;DHT22;28672;49.358;8.780;2022-09-28T18:03:29;10.10;99.90
43047;DHT22;28672;49.358;8.780;2022-09-28T18:06:05;10.10;99.90
43047;DHT22;28672;49.358;8.780;2022-09-28T18:08:32;10.10;99.90
43047;DHT22;28672;49.358;8.780;2022-09-28T18:10:58;10.10;99.90
43047;DHT22;28672;49.358;8.780;2022-09-28T18:13:26;10.10;99.90
43047;DHT22;28672;49.358;8.780;2022-09-28T18:15:53;10.00;99.90
43047;DHT22;28672;49.358;8.780;2022-09-28T18:18:19;10.00;99.90
43047;DHT22;28672;49.358;8.780;2022-09-28T18:20:45;9.90;99.90
43047;DHT22;28672;49.358;8.780;2022-09-28T18:23:10;9.80;99.90
43047;DHT22;28672;49.358;8.780;2022-09-28T18:25:43;9.80;99.90
43047;DHT22;28672;49.358;8.780;2022-09-28T18:28:10;9.80;99.90
43047;DHT22;28672;49.358;8.780;2022-09-28T18:30:44;9.70;99.90
43047;DHT22;28672;49.358;8.780;2022-09-28T18:33:11;9.70;99.90